IL04 weather

Methodist Medical Center of Illinois Heliport
Peoria, Illinois, United States

Public forecast

Using degrees Fahrenheit for public forecast. Weather courtesy of forecast.io.

Closest aviation weather report (METAR) to Methodist Medical Center of Illinois Heliport

Closest report is General Wayne A. Downing Peoria International Airport, 5.0 nm (9.2 km) WSW. Retrieved 2019/12/08 06:54 UTC (47 minutes ago):

KPIA 080654Z 18009KT 10SM CLR 01/M02 A3010 RMK AO2 SLP198 T00061022

Closest aviation forecast (TAF) to Methodist Medical Center of Illinois Heliport

Closest forecast is General Wayne A. Downing Peoria International Airport, 5.0 nm (9.2 km) WSW. Retrieved 2019/12/08 06:24 UTC (1 hour ago):

TAF KPIA 080523Z 0806/0906 17009KT P6SM FEW250 FM080900 19013KT P6SM OVC012 FM081500 19012G20KT P6SM SCT025 BKN180 FM090000 18011KT P6SM SCT012 BKN018